Main page
METAR-TAF:

METAR-TAF

Airports :

Henry Post Army Airfield

Fort Sill, Oklahoma, United States

latitude: 34-36N, longitude: 098-24W, elevation: 1187 ft

Current weather observation

The report was made 1 hour and 22 minutes ago, at 19:55 UTC
Wind 23 mph from the South/Southeast with gusts up to 28 mph
Temperature 91°F
Humidity 49%
Pressure 29.72 in. Hg
Visibility: 10 miles
Broken clouds at a height of 4900 ft
Broken clouds at a height of 17000 ft

METAR: KFSI 171955Z 171955Z 16020G24KT 10SM BKN049 BKN170 33/21 A2972 RMK AO2A PK WND 18027/26 SLP052 T03290207 FZRANO $

Time: 16:17 (21:17 UTC)


TAF: missing

Weather observations and forecasts of more than 4000 airports (METAR and TAF reports).

The available stations are represented by yellow and red dots on the map.

Hover mouse over dot to see the name of the station.

Then click to see weather observations and forecasts.

To change the map : click on the green buttons with a black cross to zoom in, on the green button with a dash to zoom out, or on the green arrows for adjacent maps.


METAR-TAF: